createdAt,value
2023-05-10T00:00:30.000Z,1016.78
2023-05-10T00:01:30.000Z,1016.8
2023-05-10T00:02:30.000Z,1016.83
2023-05-10T00:03:30.000Z,1016.83
2023-05-10T00:04:31.000Z,1016.79
2023-05-10T00:05:31.000Z,1016.77
2023-05-10T00:06:31.000Z,1016.78
2023-05-10T00:07:31.000Z,1016.76
2023-05-10T00:08:32.000Z,1016.75
2023-05-10T00:09:32.000Z,1016.76
2023-05-10T00:10:32.000Z,1016.75
2023-05-10T00:11:33.000Z,1016.79
2023-05-10T00:12:33.000Z,1016.77
2023-05-10T00:13:33.000Z,1016.73
2023-05-10T00:14:33.000Z,1016.73
2023-05-10T00:15:34.000Z,1016.7
2023-05-10T00:16:34.000Z,1016.69
2023-05-10T00:17:34.000Z,1016.65
2023-05-10T00:18:34.000Z,1016.66
2023-05-10T00:19:35.000Z,1016.66
2023-05-10T00:20:35.000Z,1016.67
2023-05-10T00:21:35.000Z,1016.64
2023-05-10T00:22:35.000Z,1016.66
2023-05-10T00:23:36.000Z,1016.67
2023-05-10T00:24:36.000Z,1016.65
2023-05-10T00:25:36.000Z,1016.66
2023-05-10T00:26:36.000Z,1016.62
2023-05-10T00:27:37.000Z,1016.63
2023-05-10T00:28:37.000Z,1016.63
2023-05-10T00:29:37.000Z,1016.59
2023-05-10T00:30:37.000Z,1016.59
2023-05-10T00:31:38.000Z,1016.58
2023-05-10T00:32:38.000Z,1016.55
2023-05-10T00:33:38.000Z,1016.61
2023-05-10T00:34:39.000Z,1016.54
2023-05-10T00:35:39.000Z,1016.53
2023-05-10T00:36:39.000Z,1016.51
2023-05-10T00:37:39.000Z,1016.49
2023-05-10T00:38:40.000Z,1016.49
2023-05-10T00:39:40.000Z,1016.4
2023-05-10T00:40:40.000Z,1016.46
2023-05-10T00:41:40.000Z,1016.48
2023-05-10T00:42:41.000Z,1016.47
2023-05-10T00:43:41.000Z,1016.43
2023-05-10T00:44:41.000Z,1016.4
2023-05-10T00:45:41.000Z,1016.42
2023-05-10T00:46:42.000Z,1016.41
2023-05-10T00:47:42.000Z,1016.41
2023-05-10T00:48:42.000Z,1016.39
2023-05-10T00:49:42.000Z,1016.36
2023-05-10T00:50:43.000Z,1016.36
2023-05-10T00:51:43.000Z,1016.39
2023-05-10T00:52:43.000Z,1016.37
2023-05-10T00:53:43.000Z,1016.38
2023-05-10T00:54:44.000Z,1016.37
2023-05-10T00:55:44.000Z,1016.39
2023-05-10T00:56:44.000Z,1016.34
2023-05-10T00:57:44.000Z,1016.37
2023-05-10T00:58:45.000Z,1016.35
2023-05-10T00:59:45.000Z,1016.35
2023-05-10T01:00:45.000Z,1016.35
2023-05-10T01:01:45.000Z,1016.39
2023-05-10T01:02:46.000Z,1016.45
2023-05-10T01:03:46.000Z,1016.4
2023-05-10T01:04:46.000Z,1016.37
2023-05-10T01:05:47.000Z,1016.36
2023-05-10T01:06:47.000Z,1016.35
2023-05-10T01:07:47.000Z,1016.37
2023-05-10T01:08:47.000Z,1016.36
2023-05-10T01:09:48.000Z,1016.38
2023-05-10T01:10:48.000Z,1016.34
2023-05-10T01:11:48.000Z,1016.34
2023-05-10T01:12:48.000Z,1016.34
2023-05-10T01:13:49.000Z,1016.33
2023-05-10T01:14:49.000Z,1016.32
2023-05-10T01:15:49.000Z,1016.3
2023-05-10T01:16:49.000Z,1016.27
2023-05-10T01:17:50.000Z,1016.29
2023-05-10T01:18:50.000Z,1016.28
2023-05-10T01:19:50.000Z,1016.28
2023-05-10T01:20:50.000Z,1016.27
2023-05-10T01:21:51.000Z,1016.23
2023-05-10T01:22:51.000Z,1016.25
2023-05-10T01:23:51.000Z,1016.28
2023-05-10T01:24:52.000Z,1016.27
2023-05-10T01:25:52.000Z,1016.27
2023-05-10T01:26:52.000Z,1016.25
2023-05-10T01:27:52.000Z,1016.25
2023-05-10T01:28:53.000Z,1016.27
2023-05-10T01:29:53.000Z,1016.27
2023-05-10T01:30:53.000Z,1016.24
2023-05-10T01:31:53.000Z,1016.2
2023-05-10T01:32:54.000Z,1016.21
2023-05-10T01:33:54.000Z,1016.26
2023-05-10T01:34:54.000Z,1016.23
2023-05-10T01:35:54.000Z,1016.19
2023-05-10T01:36:55.000Z,1016.23
2023-05-10T01:37:55.000Z,1016.2
2023-05-10T01:38:55.000Z,1016.17
2023-05-10T01:39:55.000Z,1016.19
2023-05-10T01:40:56.000Z,1016.19
2023-05-10T01:41:56.000Z,1016.19
2023-05-10T01:42:56.000Z,1016.15
2023-05-10T01:43:56.000Z,1016.17
2023-05-10T01:44:57.000Z,1016.18
2023-05-10T01:45:57.000Z,1016.12
2023-05-10T01:46:57.000Z,1016.1
2023-05-10T01:47:57.000Z,1016.06
2023-05-10T01:48:58.000Z,1016.12
2023-05-10T01:49:58.000Z,1016.11
2023-05-10T01:50:58.000Z,1016.08
2023-05-10T01:51:58.000Z,1016.14
2023-05-10T01:52:59.000Z,1016.13
2023-05-10T01:53:59.000Z,1016.08
2023-05-10T01:54:59.000Z,1016.12
2023-05-10T01:56:00.000Z,1016.14
2023-05-10T01:57:00.000Z,1016.18
2023-05-10T01:58:00.000Z,1016.14
2023-05-10T01:59:00.000Z,1016.2
2023-05-10T02:00:01.000Z,1016.22
2023-05-10T02:01:01.000Z,1016.22
2023-05-10T02:02:01.000Z,1016.16
2023-05-10T02:03:01.000Z,1016.19
2023-05-10T02:04:02.000Z,1016.16
2023-05-10T02:05:02.000Z,1016.17
2023-05-10T02:06:02.000Z,1016.15
2023-05-10T02:07:02.000Z,1016.14
2023-05-10T02:08:03.000Z,1016.13
2023-05-10T02:09:03.000Z,1016.09
2023-05-10T02:10:03.000Z,1016.09
2023-05-10T02:11:03.000Z,1016.1
2023-05-10T02:12:04.000Z,1016.13
2023-05-10T02:13:04.000Z,1016.18
2023-05-10T02:14:04.000Z,1016.17
2023-05-10T02:15:04.000Z,1016.14
2023-05-10T02:16:05.000Z,1016.1
2023-05-10T02:17:05.000Z,1016.08
2023-05-10T02:18:05.000Z,1016.06
2023-05-10T02:19:06.000Z,1016.08
2023-05-10T02:20:06.000Z,1016.05
2023-05-10T02:21:06.000Z,1016.02
2023-05-10T02:22:06.000Z,1016.05
2023-05-10T02:23:07.000Z,1016.09
2023-05-10T02:24:07.000Z,1016.09
2023-05-10T02:25:07.000Z,1016.1
2023-05-10T02:26:07.000Z,1016.06
2023-05-10T02:27:08.000Z,1016.04
2023-05-10T02:28:08.000Z,1016.05
2023-05-10T02:29:08.000Z,1016.07
2023-05-10T02:30:08.000Z,1016.0
2023-05-10T02:31:09.000Z,1016.01
2023-05-10T02:32:09.000Z,1016.03
2023-05-10T02:33:09.000Z,1015.98
2023-05-10T02:34:09.000Z,1016.07
2023-05-10T02:35:10.000Z,1016.09
2023-05-10T02:36:10.000Z,1016.04
2023-05-10T02:37:10.000Z,1016.06
2023-05-10T02:38:10.000Z,1016.06
2023-05-10T02:39:11.000Z,1016.1
2023-05-10T02:40:11.000Z,1016.05
2023-05-10T02:41:11.000Z,1015.99
2023-05-10T02:42:11.000Z,1016.03
2023-05-10T02:43:12.000Z,1016.03
2023-05-10T02:44:12.000Z,1016.07
2023-05-10T02:45:12.000Z,1016.03
2023-05-10T02:46:12.000Z,1016.04
2023-05-10T02:47:13.000Z,1015.99
2023-05-10T02:48:13.000Z,1016.04
2023-05-10T02:49:13.000Z,1016.01
2023-05-10T02:50:13.000Z,1015.99
2023-05-10T02:51:14.000Z,1015.99
2023-05-10T02:52:14.000Z,1015.99
2023-05-10T02:53:14.000Z,1016.03
2023-05-10T02:54:15.000Z,1016.06
2023-05-10T02:55:15.000Z,1016.01
2023-05-10T02:56:15.000Z,1015.96
2023-05-10T02:57:15.000Z,1016.02
2023-05-10T02:58:16.000Z,1015.95
2023-05-10T02:59:16.000Z,1015.97
2023-05-10T03:00:16.000Z,1015.94
2023-05-10T03:01:16.000Z,1016.03
2023-05-10T03:02:17.000Z,1016.07
2023-05-10T03:03:17.000Z,1016.11
2023-05-10T03:04:17.000Z,1016.08
2023-05-10T03:05:17.000Z,1016.06
2023-05-10T03:06:18.000Z,1016.04
2023-05-10T03:07:18.000Z,1016.0
2023-05-10T03:08:18.000Z,1016.02
2023-05-10T03:09:18.000Z,1016.01
2023-05-10T03:10:19.000Z,1016.0
2023-05-10T03:11:19.000Z,1016.02
2023-05-10T03:12:19.000Z,1015.99
2023-05-10T03:13:19.000Z,1015.99
2023-05-10T03:14:20.000Z,1016.02
2023-05-10T03:15:20.000Z,1016.0
2023-05-10T03:16:20.000Z,1015.99
2023-05-10T03:17:21.000Z,1015.96
2023-05-10T03:18:21.000Z,1015.93
2023-05-10T03:19:21.000Z,1016.0
2023-05-10T03:20:21.000Z,1015.95
2023-05-10T03:21:22.000Z,1016.01
2023-05-10T03:22:22.000Z,1016.01
2023-05-10T03:23:22.000Z,1016.0
2023-05-10T03:24:22.000Z,1015.98
2023-05-10T03:25:23.000Z,1016.05
2023-05-10T03:26:23.000Z,1015.99
2023-05-10T03:27:23.000Z,1015.98
2023-05-10T03:28:24.000Z,1015.94
2023-05-10T03:29:24.000Z,1015.98
2023-05-10T03:30:24.000Z,1015.99
2023-05-10T03:31:24.000Z,1016.0
2023-05-10T03:32:25.000Z,1016.0
2023-05-10T03:33:25.000Z,1016.04
2023-05-10T03:34:25.000Z,1016.01
2023-05-10T03:35:25.000Z,1016.03
2023-05-10T03:36:26.000Z,1016.03
2023-05-10T03:37:26.000Z,1016.06
2023-05-10T03:38:26.000Z,1016.05
2023-05-10T03:39:26.000Z,1016.08
2023-05-10T03:40:27.000Z,1016.07
2023-05-10T03:41:27.000Z,1016.06
2023-05-10T03:42:27.000Z,1016.07
2023-05-10T03:43:27.000Z,1016.09
2023-05-10T03:44:28.000Z,1016.11
2023-05-10T03:45:28.000Z,1016.06
2023-05-10T03:46:28.000Z,1016.11
2023-05-10T03:47:28.000Z,1016.1
2023-05-10T03:48:29.000Z,1016.08
2023-05-10T03:49:29.000Z,1016.1
2023-05-10T03:50:29.000Z,1016.1
2023-05-10T03:51:30.000Z,1016.08
2023-05-10T03:52:30.000Z,1016.1
2023-05-10T03:53:30.000Z,1016.03
2023-05-10T03:54:30.000Z,1016.08
2023-05-10T03:55:31.000Z,1016.03
2023-05-10T03:56:31.000Z,1016.08
2023-05-10T03:57:31.000Z,1016.05
2023-05-10T03:58:31.000Z,1016.09
2023-05-10T03:59:32.000Z,1016.01
2023-05-10T04:00:32.000Z,1015.99
2023-05-10T04:01:32.000Z,1016.02
2023-05-10T04:02:33.000Z,1015.99
2023-05-10T04:03:33.000Z,1015.99
2023-05-10T04:04:33.000Z,1016.01
2023-05-10T04:05:33.000Z,1016.01
2023-05-10T04:06:34.000Z,1016.0
2023-05-10T04:07:34.000Z,1016.0
2023-05-10T04:08:34.000Z,1015.99
2023-05-10T04:09:34.000Z,1015.97
2023-05-10T04:10:35.000Z,1016.0
2023-05-10T04:11:35.000Z,1015.96
2023-05-10T04:12:35.000Z,1015.89
2023-05-10T04:13:35.000Z,1015.88
2023-05-10T04:14:36.000Z,1015.91
2023-05-10T04:15:36.000Z,1015.89
2023-05-10T04:16:36.000Z,1015.88
2023-05-10T04:17:36.000Z,1015.92
2023-05-10T04:18:37.000Z,1015.95
2023-05-10T04:19:37.000Z,1015.91
2023-05-10T04:20:37.000Z,1015.91
2023-05-10T04:21:37.000Z,1015.93
2023-05-10T04:22:38.000Z,1015.89
2023-05-10T04:23:38.000Z,1015.9
2023-05-10T04:24:38.000Z,1015.91
2023-05-10T04:25:38.000Z,1015.85
2023-05-10T04:26:39.000Z,1015.88
2023-05-10T04:27:39.000Z,1015.86
2023-05-10T04:28:39.000Z,1015.9
2023-05-10T04:29:40.000Z,1015.84
2023-05-10T04:30:40.000Z,1015.86
2023-05-10T04:31:40.000Z,1015.81
2023-05-10T04:32:40.000Z,1015.85
2023-05-10T04:33:41.000Z,1015.81
2023-05-10T04:34:41.000Z,1015.81
2023-05-10T04:35:41.000Z,1015.8
2023-05-10T04:36:41.000Z,1015.8
2023-05-10T04:37:42.000Z,1015.78
2023-05-10T04:38:42.000Z,1015.85
2023-05-10T04:39:42.000Z,1015.82
2023-05-10T04:40:42.000Z,1015.78
2023-05-10T04:41:43.000Z,1015.81
2023-05-10T04:42:43.000Z,1015.83
2023-05-10T04:43:43.000Z,1015.79
2023-05-10T04:44:43.000Z,1015.85
2023-05-10T04:45:44.000Z,1015.79
2023-05-10T04:46:44.000Z,1015.75
2023-05-10T04:47:44.000Z,1015.76
2023-05-10T04:48:44.000Z,1015.74
2023-05-10T04:49:45.000Z,1015.78
2023-05-10T04:50:45.000Z,1015.75
2023-05-10T04:51:45.000Z,1015.76
2023-05-10T04:52:46.000Z,1015.76
2023-05-10T04:53:46.000Z,1015.77
2023-05-10T04:54:46.000Z,1015.8
2023-05-10T04:55:46.000Z,1015.83
2023-05-10T04:56:46.000Z,1015.78
2023-05-10T04:57:47.000Z,1015.83
2023-05-10T04:58:47.000Z,1015.8
2023-05-10T04:59:47.000Z,1015.85
2023-05-10T05:00:47.000Z,1015.87
2023-05-10T05:01:48.000Z,1015.86
2023-05-10T05:02:48.000Z,1015.9
2023-05-10T05:03:48.000Z,1015.82
2023-05-10T05:04:48.000Z,1015.85
2023-05-10T05:05:49.000Z,1015.88
2023-05-10T05:06:49.000Z,1015.91
2023-05-10T05:07:49.000Z,1015.91
2023-05-10T05:08:50.000Z,1015.89
2023-05-10T05:09:50.000Z,1015.89
2023-05-10T05:10:50.000Z,1015.92
2023-05-10T05:11:50.000Z,1015.96
2023-05-10T05:12:51.000Z,1015.95
2023-05-10T05:13:51.000Z,1015.95
2023-05-10T05:14:51.000Z,1015.93
2023-05-10T05:15:51.000Z,1015.9
2023-05-10T05:16:52.000Z,1015.89
2023-05-10T05:17:52.000Z,1015.9
2023-05-10T05:18:52.000Z,1015.96
2023-05-10T05:19:52.000Z,1015.97
2023-05-10T05:20:53.000Z,1016.0
2023-05-10T05:21:53.000Z,1015.99
2023-05-10T05:22:53.000Z,1015.99
2023-05-10T05:23:53.000Z,1015.97
2023-05-10T05:24:54.000Z,1015.95
2023-05-10T05:25:54.000Z,1015.96
2023-05-10T05:26:54.000Z,1015.93
2023-05-10T05:27:55.000Z,1015.97
2023-05-10T05:28:55.000Z,1015.95
2023-05-10T05:29:55.000Z,1015.98
2023-05-10T05:30:55.000Z,1016.01
2023-05-10T05:31:56.000Z,1016.0
2023-05-10T05:32:56.000Z,1015.96
2023-05-10T05:33:56.000Z,1015.96
2023-05-10T05:34:57.000Z,1015.98
2023-05-10T05:35:57.000Z,1015.97
2023-05-10T05:36:57.000Z,1015.93
2023-05-10T05:37:57.000Z,1015.94
2023-05-10T05:38:57.000Z,1015.89
2023-05-10T05:39:58.000Z,1015.98
2023-05-10T05:40:58.000Z,1015.92
2023-05-10T05:41:58.000Z,1015.93
2023-05-10T05:42:59.000Z,1015.93
2023-05-10T05:43:59.000Z,1015.91
2023-05-10T05:44:59.000Z,1015.91
2023-05-10T05:45:59.000Z,1015.91
2023-05-10T05:47:00.000Z,1015.94
2023-05-10T05:48:00.000Z,1015.94
2023-05-10T05:49:00.000Z,1015.95
2023-05-10T05:50:00.000Z,1015.95
2023-05-10T05:51:01.000Z,1015.95
2023-05-10T05:52:01.000Z,1015.97
2023-05-10T05:53:01.000Z,1015.95
2023-05-10T05:54:02.000Z,1015.95
2023-05-10T05:55:02.000Z,1015.92
2023-05-10T05:56:02.000Z,1015.93
2023-05-10T05:57:02.000Z,1016.01
2023-05-10T05:58:03.000Z,1015.95
2023-05-10T05:59:03.000Z,1015.96
2023-05-10T06:00:03.000Z,1015.97
2023-05-10T06:01:03.000Z,1015.94
2023-05-10T06:02:04.000Z,1015.97
2023-05-10T06:03:04.000Z,1015.97
2023-05-10T06:04:04.000Z,1015.97
2023-05-10T06:05:04.000Z,1016.03
2023-05-10T06:06:05.000Z,1016.01
2023-05-10T06:07:05.000Z,1016.04
2023-05-10T06:08:05.000Z,1016.06
2023-05-10T06:09:06.000Z,1015.97
2023-05-10T06:10:06.000Z,1016.07
2023-05-10T06:11:06.000Z,1016.06
2023-05-10T06:12:06.000Z,1016.05
2023-05-10T06:13:07.000Z,1016.04
2023-05-10T06:14:07.000Z,1016.05
2023-05-10T06:15:07.000Z,1016.07
2023-05-10T06:16:07.000Z,1016.06
2023-05-10T06:17:08.000Z,1016.07
2023-05-10T06:18:08.000Z,1016.09
2023-05-10T06:19:08.000Z,1016.06
2023-05-10T06:20:09.000Z,1016.05
2023-05-10T06:21:09.000Z,1016.06
2023-05-10T06:22:09.000Z,1016.11
2023-05-10T06:23:09.000Z,1016.1
2023-05-10T06:24:10.000Z,1016.09
2023-05-10T06:25:10.000Z,1016.13
2023-05-10T06:26:10.000Z,1016.13
2023-05-10T06:27:10.000Z,1016.13
2023-05-10T06:28:11.000Z,1016.17
2023-05-10T06:29:11.000Z,1016.18
2023-05-10T06:30:11.000Z,1016.21
2023-05-10T06:31:11.000Z,1016.18
2023-05-10T06:32:12.000Z,1016.18
2023-05-10T06:33:12.000Z,1016.19
2023-05-10T06:34:12.000Z,1016.23
2023-05-10T06:35:12.000Z,1016.19
2023-05-10T06:36:13.000Z,1016.21
2023-05-10T06:37:13.000Z,1016.23
2023-05-10T06:38:13.000Z,1016.23
2023-05-10T06:39:13.000Z,1016.22
2023-05-10T06:40:14.000Z,1016.23
2023-05-10T06:41:14.000Z,1016.28
2023-05-10T06:42:14.000Z,1016.26
2023-05-10T06:43:15.000Z,1016.33
2023-05-10T06:44:15.000Z,1016.35
2023-05-10T06:45:15.000Z,1016.38
2023-05-10T06:46:15.000Z,1016.36
2023-05-10T06:47:16.000Z,1016.38
2023-05-10T06:48:16.000Z,1016.4
2023-05-10T06:49:16.000Z,1016.43
2023-05-10T06:50:17.000Z,1016.4
2023-05-10T06:51:17.000Z,1016.41
2023-05-10T06:52:17.000Z,1016.44
2023-05-10T06:53:17.000Z,1016.42
2023-05-10T06:54:18.000Z,1016.44
2023-05-10T06:55:18.000Z,1016.44
2023-05-10T06:56:18.000Z,1016.46
2023-05-10T06:57:18.000Z,1016.4
2023-05-10T06:58:19.000Z,1016.43
2023-05-10T06:59:19.000Z,1016.46
2023-05-10T07:00:19.000Z,1016.47
2023-05-10T07:01:20.000Z,1016.49
2023-05-10T07:02:20.000Z,1016.44
2023-05-10T07:03:20.000Z,1016.45
2023-05-10T07:04:20.000Z,1016.49
2023-05-10T07:05:21.000Z,1016.48
2023-05-10T07:06:21.000Z,1016.46
2023-05-10T07:07:21.000Z,1016.53
2023-05-10T07:08:21.000Z,1016.47
2023-05-10T07:09:22.000Z,1016.47
2023-05-10T07:10:22.000Z,1016.49
2023-05-10T07:11:22.000Z,1016.52
2023-05-10T07:12:22.000Z,1016.5
2023-05-10T07:13:23.000Z,1016.49
2023-05-10T07:14:23.000Z,1016.53
2023-05-10T07:15:23.000Z,1016.54
2023-05-10T07:16:23.000Z,1016.53
2023-05-10T07:17:24.000Z,1016.58
2023-05-10T07:18:24.000Z,1016.53
2023-05-10T07:19:24.000Z,1016.58
2023-05-10T07:20:24.000Z,1016.58
2023-05-10T07:21:25.000Z,1016.57
2023-05-10T07:22:25.000Z,1016.6
2023-05-10T07:23:25.000Z,1016.59
2023-05-10T07:24:26.000Z,1016.63
2023-05-10T07:25:26.000Z,1016.57
2023-05-10T07:26:26.000Z,1016.62
2023-05-10T07:27:26.000Z,1016.66
2023-05-10T07:28:27.000Z,1016.65
2023-05-10T07:29:27.000Z,1016.6
2023-05-10T07:30:27.000Z,1016.62
2023-05-10T07:31:28.000Z,1016.62
2023-05-10T07:32:28.000Z,1016.67
2023-05-10T07:33:28.000Z,1016.59
2023-05-10T07:34:28.000Z,1016.62
2023-05-10T07:35:29.000Z,1016.63
2023-05-10T07:36:29.000Z,1016.66
2023-05-10T07:37:29.000Z,1016.67
2023-05-10T07:38:29.000Z,1016.71
2023-05-10T07:39:30.000Z,1016.69
2023-05-10T07:40:30.000Z,1016.7
2023-05-10T07:41:30.000Z,1016.63
2023-05-10T07:42:31.000Z,1016.69
2023-05-10T07:43:31.000Z,1016.71
2023-05-10T07:44:31.000Z,1016.74
2023-05-10T07:45:31.000Z,1016.73
2023-05-10T07:46:32.000Z,1016.75
2023-05-10T07:47:32.000Z,1016.75
2023-05-10T07:48:32.000Z,1016.74
2023-05-10T07:49:32.000Z,1016.71
2023-05-10T07:50:33.000Z,1016.71
2023-05-10T07:51:33.000Z,1016.74
2023-05-10T07:52:33.000Z,1016.73
2023-05-10T07:53:33.000Z,1016.79
2023-05-10T07:54:34.000Z,1016.78
2023-05-10T07:55:34.000Z,1016.79
2023-05-10T07:56:34.000Z,1016.76
2023-05-10T07:57:35.000Z,1016.79
2023-05-10T07:58:35.000Z,1016.74
2023-05-10T07:59:35.000Z,1016.78
2023-05-10T08:00:35.000Z,1016.74
2023-05-10T08:01:36.000Z,1016.77
2023-05-10T08:02:36.000Z,1016.75
2023-05-10T08:03:36.000Z,1016.78
2023-05-10T08:04:36.000Z,1016.75
2023-05-10T08:05:37.000Z,1016.85
2023-05-10T08:06:37.000Z,1016.83
2023-05-10T08:07:37.000Z,1016.82
2023-05-10T08:08:37.000Z,1016.83
2023-05-10T08:09:38.000Z,1016.83
2023-05-10T08:10:38.000Z,1016.88
2023-05-10T08:11:38.000Z,1016.86
2023-05-10T08:12:39.000Z,1016.86
2023-05-10T08:13:39.000Z,1016.81
2023-05-10T08:14:39.000Z,1016.88
2023-05-10T08:15:39.000Z,1016.85
2023-05-10T08:16:40.000Z,1016.93
2023-05-10T08:17:40.000Z,1016.9
2023-05-10T08:18:40.000Z,1016.94
2023-05-10T08:19:41.000Z,1016.95
2023-05-10T08:20:41.000Z,1016.91
2023-05-10T08:21:41.000Z,1016.93
2023-05-10T08:22:41.000Z,1016.92
2023-05-10T08:23:42.000Z,1016.95
2023-05-10T08:24:42.000Z,1016.99
2023-05-10T08:25:42.000Z,1016.94
2023-05-10T08:26:42.000Z,1016.96
2023-05-10T08:27:43.000Z,1017.09
2023-05-10T08:28:43.000Z,1017.11
2023-05-10T08:29:43.000Z,1017.09
2023-05-10T08:30:44.000Z,1017.17
2023-05-10T08:31:44.000Z,1017.2
2023-05-10T08:32:44.000Z,1017.23
2023-05-10T08:33:44.000Z,1017.24
2023-05-10T08:34:45.000Z,1017.27
2023-05-10T08:35:45.000Z,1017.29
2023-05-10T08:36:45.000Z,1017.28
2023-05-10T08:37:45.000Z,1017.29
2023-05-10T08:38:46.000Z,1017.36
2023-05-10T08:39:46.000Z,1017.32
2023-05-10T08:40:46.000Z,1017.32
2023-05-10T08:41:46.000Z,1017.32
2023-05-10T08:42:47.000Z,1017.34
2023-05-10T08:43:47.000Z,1017.34
2023-05-10T08:44:47.000Z,1017.33
2023-05-10T08:45:47.000Z,1017.32
2023-05-10T08:46:48.000Z,1017.35
2023-05-10T08:47:48.000Z,1017.36
2023-05-10T08:48:48.000Z,1017.39
2023-05-10T08:49:48.000Z,1017.38
2023-05-10T08:50:49.000Z,1017.37
2023-05-10T08:51:49.000Z,1017.39
2023-05-10T08:52:49.000Z,1017.42
2023-05-10T08:53:49.000Z,1017.45
2023-05-10T08:54:50.000Z,1017.44
2023-05-10T08:55:50.000Z,1017.5
2023-05-10T08:56:50.000Z,1017.47
2023-05-10T08:57:51.000Z,1017.5
2023-05-10T08:58:51.000Z,1017.46
2023-05-10T08:59:51.000Z,1017.53
2023-05-10T09:00:51.000Z,1017.53
2023-05-10T09:01:52.000Z,1017.53
2023-05-10T09:02:52.000Z,1017.52
2023-05-10T09:03:52.000Z,1017.47
2023-05-10T09:04:52.000Z,1017.46
2023-05-10T09:05:53.000Z,1017.49
2023-05-10T09:06:53.000Z,1017.47
2023-05-10T09:07:53.000Z,1017.49
2023-05-10T09:08:54.000Z,1017.53
2023-05-10T09:09:54.000Z,1017.57
2023-05-10T09:10:54.000Z,1017.54
2023-05-10T09:11:54.000Z,1017.57
2023-05-10T09:12:55.000Z,1017.61
2023-05-10T09:13:55.000Z,1017.59
2023-05-10T09:14:55.000Z,1017.6
2023-05-10T09:15:55.000Z,1017.66
2023-05-10T09:16:56.000Z,1017.72
2023-05-10T09:17:56.000Z,1017.69
2023-05-10T09:18:56.000Z,1017.76
2023-05-10T09:19:56.000Z,1017.76
2023-05-10T09:20:57.000Z,1017.78
2023-05-10T09:21:57.000Z,1017.85
2023-05-10T09:22:57.000Z,1017.89
2023-05-10T09:23:58.000Z,1017.85
2023-05-10T09:24:58.000Z,1017.84
2023-05-10T09:25:58.000Z,1017.87
2023-05-10T09:26:58.000Z,1017.85
2023-05-10T09:27:59.000Z,1017.82
2023-05-10T09:28:59.000Z,1017.86
2023-05-10T09:29:59.000Z,1017.86
2023-05-10T09:30:59.000Z,1017.89
2023-05-10T09:32:00.000Z,1017.84
2023-05-10T09:33:00.000Z,1017.85
2023-05-10T09:34:00.000Z,1017.85
2023-05-10T09:35:00.000Z,1017.83
2023-05-10T09:36:00.000Z,1017.86
2023-05-10T09:37:01.000Z,1017.85
2023-05-10T09:38:01.000Z,1017.87
2023-05-10T09:39:01.000Z,1017.92
2023-05-10T09:40:02.000Z,1017.92
2023-05-10T09:41:02.000Z,1017.95
2023-05-10T09:42:02.000Z,1017.92
2023-05-10T09:43:02.000Z,1017.89
2023-05-10T09:44:03.000Z,1017.91
2023-05-10T09:45:03.000Z,1017.97
2023-05-10T09:46:03.000Z,1017.92
2023-05-10T09:47:03.000Z,1017.96
2023-05-10T09:48:04.000Z,1017.94
2023-05-10T09:49:04.000Z,1017.92
2023-05-10T09:50:04.000Z,1017.88
2023-05-10T09:51:04.000Z,1017.94
2023-05-10T09:52:05.000Z,1017.92
2023-05-10T09:53:05.000Z,1017.91
2023-05-10T09:54:05.000Z,1017.93
2023-05-10T09:55:05.000Z,1017.96
2023-05-10T09:56:06.000Z,1017.94
2023-05-10T09:57:06.000Z,1017.96
2023-05-10T09:58:06.000Z,1017.94
2023-05-10T09:59:07.000Z,1017.96
2023-05-10T10:00:07.000Z,1017.96
2023-05-10T10:01:07.000Z,1017.97
2023-05-10T10:02:07.000Z,1018.02
2023-05-10T10:03:08.000Z,1018.0
2023-05-10T10:04:08.000Z,1017.99
2023-05-10T10:05:08.000Z,1018.01
2023-05-10T10:06:08.000Z,1017.97
2023-05-10T10:07:09.000Z,1017.95
2023-05-10T10:08:09.000Z,1017.98
2023-05-10T10:09:09.000Z,1017.94
2023-05-10T10:10:09.000Z,1018.01
2023-05-10T10:11:10.000Z,1017.99
2023-05-10T10:12:10.000Z,1017.99
2023-05-10T10:13:10.000Z,1018.05
2023-05-10T10:14:10.000Z,1018.04
2023-05-10T10:15:11.000Z,1018.04
2023-05-10T10:16:11.000Z,1018.03
2023-05-10T10:17:11.000Z,1018.01
2023-05-10T10:18:11.000Z,1017.96
2023-05-10T10:19:12.000Z,1018.0
2023-05-10T10:20:12.000Z,1017.99
2023-05-10T10:21:12.000Z,1018.05
2023-05-10T10:22:13.000Z,1018.0
2023-05-10T10:23:13.000Z,1018.02
2023-05-10T10:24:13.000Z,1018.03
2023-05-10T10:25:13.000Z,1018.02
2023-05-10T10:26:14.000Z,1018.01
2023-05-10T10:27:14.000Z,1018.05
2023-05-10T10:28:14.000Z,1018.07
2023-05-10T10:29:14.000Z,1018.03
2023-05-10T10:30:15.000Z,1018.02
2023-05-10T10:31:15.000Z,1018.03
2023-05-10T10:32:15.000Z,1017.99
2023-05-10T10:33:15.000Z,1018.0
2023-05-10T10:34:16.000Z,1018.0
2023-05-10T10:35:16.000Z,1017.99
2023-05-10T10:36:16.000Z,1018.04
2023-05-10T10:37:16.000Z,1018.08
2023-05-10T10:38:17.000Z,1018.03
2023-05-10T10:39:17.000Z,1018.08
2023-05-10T10:40:17.000Z,1018.01
2023-05-10T10:41:18.000Z,1018.08
2023-05-10T10:42:18.000Z,1018.05
2023-05-10T10:43:18.000Z,1018.12
2023-05-10T10:44:18.000Z,1018.13
2023-05-10T10:45:19.000Z,1018.13
2023-05-10T10:46:19.000Z,1018.12
2023-05-10T10:47:19.000Z,1018.17
2023-05-10T10:48:19.000Z,1018.17
2023-05-10T10:49:20.000Z,1018.21
2023-05-10T10:50:20.000Z,1018.22
2023-05-10T10:51:20.000Z,1018.21
2023-05-10T10:52:20.000Z,1018.2
2023-05-10T10:53:21.000Z,1018.15
2023-05-10T10:54:21.000Z,1018.17
2023-05-10T10:55:21.000Z,1018.22
2023-05-10T10:56:21.000Z,1018.21
2023-05-10T10:57:22.000Z,1018.23
2023-05-10T10:58:22.000Z,1018.22
2023-05-10T10:59:22.000Z,1018.19
2023-05-10T11:00:23.000Z,1018.2
2023-05-10T11:01:23.000Z,1018.21
2023-05-10T11:02:23.000Z,1018.23
2023-05-10T11:03:23.000Z,1018.21
2023-05-10T11:04:24.000Z,1018.19
2023-05-10T11:05:24.000Z,1018.17
2023-05-10T11:06:24.000Z,1018.23
2023-05-10T11:07:24.000Z,1018.23
2023-05-10T11:08:25.000Z,1018.22
2023-05-10T11:09:25.000Z,1018.2
2023-05-10T11:10:25.000Z,1018.23
2023-05-10T11:11:25.000Z,1018.24
2023-05-10T11:12:26.000Z,1018.23
2023-05-10T11:13:26.000Z,1018.24
2023-05-10T11:14:26.000Z,1018.23
2023-05-10T11:15:26.000Z,1018.27
2023-05-10T11:16:27.000Z,1018.25
2023-05-10T11:17:27.000Z,1018.26
2023-05-10T11:18:27.000Z,1018.3
2023-05-10T11:19:27.000Z,1018.35
2023-05-10T11:20:28.000Z,1018.33
2023-05-10T11:21:28.000Z,1018.3
2023-05-10T11:22:28.000Z,1018.35
2023-05-10T11:23:28.000Z,1018.34
2023-05-10T11:24:29.000Z,1018.32
2023-05-10T11:25:29.000Z,1018.32
2023-05-10T11:26:29.000Z,1018.33
2023-05-10T11:27:30.000Z,1018.44
2023-05-10T11:28:30.000Z,1018.45
2023-05-10T11:29:30.000Z,1018.44
2023-05-10T11:30:30.000Z,1018.48
2023-05-10T11:31:31.000Z,1018.48
2023-05-10T11:32:31.000Z,1018.49
2023-05-10T11:33:31.000Z,1018.48
2023-05-10T11:34:31.000Z,1018.51
2023-05-10T11:35:32.000Z,1018.52
2023-05-10T11:36:32.000Z,1018.49
2023-05-10T11:37:32.000Z,1018.52
2023-05-10T11:38:32.000Z,1018.53
2023-05-10T11:39:33.000Z,1018.49
2023-05-10T11:40:33.000Z,1018.46
2023-05-10T11:41:33.000Z,1018.42
2023-05-10T11:42:33.000Z,1018.49
2023-05-10T11:43:34.000Z,1018.5
2023-05-10T11:44:34.000Z,1018.52
2023-05-10T11:45:34.000Z,1018.51
2023-05-10T11:46:34.000Z,1018.5
2023-05-10T11:47:35.000Z,1018.51
2023-05-10T11:48:35.000Z,1018.57
2023-05-10T11:49:35.000Z,1018.56
2023-05-10T11:50:35.000Z,1018.59
2023-05-10T11:51:36.000Z,1018.61
2023-05-10T11:52:36.000Z,1018.59
2023-05-10T11:53:36.000Z,1018.59
2023-05-10T11:54:36.000Z,1018.64
2023-05-10T11:55:37.000Z,1018.62
2023-05-10T11:56:37.000Z,1018.57
2023-05-10T11:57:37.000Z,1018.6
2023-05-10T11:58:38.000Z,1018.61
2023-05-10T11:59:38.000Z,1018.61
2023-05-10T12:00:38.000Z,1018.63
2023-05-10T12:01:38.000Z,1018.64
2023-05-10T12:02:39.000Z,1018.67
2023-05-10T12:03:39.000Z,1018.65
2023-05-10T12:04:39.000Z,1018.71
2023-05-10T12:05:39.000Z,1018.67
2023-05-10T12:06:40.000Z,1018.68
2023-05-10T12:07:40.000Z,1018.71
2023-05-10T12:08:40.000Z,1018.7
2023-05-10T12:09:40.000Z,1018.68
2023-05-10T12:10:41.000Z,1018.7